map of HGN home
HGN - Airport
Location
City:  Mae Hong Son, Mae Hong Son, Thailand
ICAO:VTCH
IATA:HGN

Details
Type:Airport (Aerodrome, Airfield)
Latitude:19°18'06"N (19.301667)
Longitude:97°58'30"E (97.975000)
Datum:WGS 1984
Elevation:929 ft (283 m)
Variation:0.69°W (WMM2015 magnetic declination)
0.02° annual change
Runways:1
Longest:6560 × 148 ft (1999 × 45 m), paved

Time
Time Zone:UTC+7
Local Time:

Weather
METAR:VTCH 161200Z 00000KT CAVOK 20/16 Q1013 NOSIG
TAF:VTCH 161700Z 1618/1718 10005KT 9999 FEW025
BECMG 1621/1623 0800 FG
BECMG 1701/1703 9999 NSW

Related Locations
Nearby:
Farthest:SCFX: 11934 mi / 19206 km
Isla San Félix, Desventuradas Islands, VS, CL

Find:

   beyond  
but within

Other Information
Maps:
NOTAMs:
Links:
Sources:

  
  • flag of Thailand
  

Sectional Chart

Flight Planning
at skyvector.com

Satellite Image

Google Maps Satellite view

 

Copyright © 2004-2019 Karl L. Swartz. All rights reserved.
The Great Circle Mapper name and logo are trademarks of the Great Circle Mapper.
All other trademarks mentioned herein belong to their respective owners.
Please see credits for attibutions and further copyright information.

  Follow gcmap on Facebook Follow gcmap on Twitter Follow gcmap on Google+ GCmap on LinkedIn

hCard Microformat

Geo Microformat